createdAt,value
2017-08-24T00:01:00.898Z,18.35
2017-08-24T00:03:28.608Z,11.18
2017-08-24T00:05:56.189Z,18.70
2017-08-24T00:08:23.710Z,13.75
2017-08-24T00:10:51.298Z,13.18
2017-08-24T00:13:18.858Z,21.75
2017-08-24T00:15:46.433Z,17.95
2017-08-24T00:18:14.010Z,14.73
2017-08-24T00:20:41.570Z,11.90
2017-08-24T00:23:09.111Z,18.05
2017-08-24T00:25:36.680Z,16.95
2017-08-24T00:28:04.240Z,17.92
2017-08-24T00:30:31.706Z,16.75
2017-08-24T00:32:59.465Z,13.20
2017-08-24T00:35:27.005Z,29.20
2017-08-24T00:37:54.580Z,16.08
2017-08-24T00:40:22.192Z,13.02
2017-08-24T00:42:49.764Z,20.83
2017-08-24T00:45:17.254Z,19.65
2017-08-24T00:47:44.830Z,13.60
2017-08-24T00:50:12.419Z,14.55
2017-08-24T00:52:39.966Z,18.00
2017-08-24T00:55:07.754Z,18.70
2017-08-24T00:57:35.299Z,14.55
2017-08-24T01:00:02.825Z,13.20
2017-08-24T01:02:30.416Z,14.82
2017-08-24T01:04:57.901Z,17.23
2017-08-24T01:07:25.419Z,21.10
2017-08-24T01:09:53.163Z,18.42
2017-08-24T01:12:20.708Z,14.10
2017-08-24T01:14:48.215Z,13.00
2017-08-24T01:17:15.960Z,16.55
2017-08-24T01:19:43.489Z,15.27
2017-08-24T01:22:11.035Z,15.45
2017-08-24T01:24:38.770Z,14.25
2017-08-24T01:27:06.328Z,17.35
2017-08-24T01:29:33.911Z,13.27
2017-08-24T01:32:01.517Z,13.57
2017-08-24T01:34:29.020Z,10.50
2017-08-24T01:36:56.604Z,12.63
2017-08-24T01:39:24.198Z,12.50
2017-08-24T01:41:51.716Z,18.77
2017-08-24T01:44:19.272Z,12.73
2017-08-24T01:46:47.000Z,13.55
2017-08-24T01:49:15.406Z,14.13
2017-08-24T01:51:42.913Z,10.65
2017-08-24T01:54:10.556Z,10.88
2017-08-24T01:56:38.098Z,13.80
2017-08-24T01:59:05.648Z,14.25
2017-08-24T02:01:33.269Z,11.55
2017-08-24T02:04:00.782Z,11.85
2017-08-24T02:06:28.336Z,12.98
2017-08-24T02:08:55.945Z,12.05
2017-08-24T02:11:23.499Z,10.68
2017-08-24T02:13:51.014Z,8.93
2017-08-24T02:16:18.626Z,8.77
2017-08-24T02:18:46.225Z,11.63
2017-08-24T02:21:13.814Z,11.75
2017-08-24T02:23:41.391Z,15.63
2017-08-24T02:26:08.942Z,10.93
2017-08-24T02:28:36.509Z,11.82
2017-08-24T02:31:04.117Z,11.68
2017-08-24T02:33:31.617Z,8.45
2017-08-24T02:35:59.170Z,11.90
2017-08-24T02:38:26.752Z,8.60
2017-08-24T02:40:54.820Z,11.30
2017-08-24T02:43:22.396Z,12.65
2017-08-24T02:45:49.979Z,8.40
2017-08-24T02:48:17.498Z,7.20
2017-08-24T02:50:45.051Z,13.15
2017-08-24T02:53:12.612Z,11.65
2017-08-24T02:55:40.162Z,15.43
2017-08-24T02:58:07.707Z,14.15
2017-08-24T03:00:35.338Z,10.80
2017-08-24T03:03:02.901Z,9.20
2017-08-24T03:05:30.460Z,6.40
2017-08-24T03:07:58.015Z,12.00
2017-08-24T03:10:25.521Z,8.65
2017-08-24T03:12:53.074Z,7.28
2017-08-24T03:15:20.664Z,15.07
2017-08-24T03:17:48.177Z,9.23
2017-08-24T03:20:15.719Z,12.32
2017-08-24T03:22:43.448Z,8.18
2017-08-24T03:25:10.962Z,8.43
2017-08-24T03:27:38.507Z,12.25
2017-08-24T03:30:06.134Z,7.85
2017-08-24T03:32:33.682Z,8.93
2017-08-24T03:35:01.179Z,13.32
2017-08-24T03:37:28.748Z,10.73
2017-08-24T03:39:56.286Z,10.35
2017-08-24T03:42:23.809Z,12.88
2017-08-24T03:44:51.460Z,5.93
2017-08-24T03:47:18.973Z,7.72
2017-08-24T03:49:46.531Z,9.02
2017-08-24T03:52:14.814Z,19.48
2017-08-24T03:54:43.089Z,7.15
2017-08-24T03:57:10.816Z,7.30
2017-08-24T03:59:38.559Z,6.72
2017-08-24T04:02:06.109Z,6.65
2017-08-24T04:04:33.706Z,10.95
2017-08-24T04:07:01.265Z,11.50
2017-08-24T04:09:28.819Z,11.12
2017-08-24T04:11:56.394Z,12.52
2017-08-24T04:14:24.097Z,6.72
2017-08-24T04:16:51.632Z,7.95
2017-08-24T04:19:19.183Z,7.50
2017-08-24T04:21:46.901Z,8.13
2017-08-24T04:24:14.524Z,6.90
2017-08-24T04:26:42.097Z,11.55
2017-08-24T04:29:09.830Z,9.95
2017-08-24T04:31:37.385Z,16.60
2017-08-24T04:34:04.909Z,12.93
2017-08-24T04:36:33.175Z,10.65
2017-08-24T04:39:00.723Z,12.48
2017-08-24T04:41:28.279Z,11.32
2017-08-24T04:43:56.043Z,12.90
2017-08-24T04:46:23.640Z,10.23
2017-08-24T04:48:51.203Z,21.90
2017-08-24T04:51:18.772Z,18.12
2017-08-24T04:53:46.338Z,24.30
2017-08-24T04:56:13.862Z,14.05
2017-08-24T04:58:41.380Z,21.05
2017-08-24T05:01:08.965Z,17.27
2017-08-24T05:03:36.463Z,22.62
2017-08-24T05:06:04.056Z,17.25
2017-08-24T05:08:31.616Z,11.40
2017-08-24T05:11:00.086Z,27.02
2017-08-24T05:13:27.703Z,11.12
2017-08-24T05:15:55.278Z,14.87
2017-08-24T05:18:22.824Z,19.58
2017-08-24T05:20:50.525Z,14.65
2017-08-24T05:23:18.068Z,21.05
2017-08-24T05:25:45.573Z,34.78
2017-08-24T05:28:13.325Z,16.02
2017-08-24T05:30:40.874Z,19.92
2017-08-24T05:33:08.431Z,21.55
2017-08-24T05:35:36.162Z,26.73
2017-08-24T05:38:03.692Z,22.03
2017-08-24T05:40:31.243Z,15.80
2017-08-24T05:42:58.832Z,16.37
2017-08-24T05:45:26.377Z,18.10
2017-08-24T05:47:53.909Z,8.57
2017-08-24T05:50:21.556Z,11.03
2017-08-24T05:52:49.129Z,9.47
2017-08-24T05:55:16.676Z,8.63
2017-08-24T05:57:44.418Z,4.43
2017-08-24T06:00:11.973Z,9.57
2017-08-24T06:02:39.516Z,6.43
2017-08-24T06:05:07.094Z,5.87
2017-08-24T06:07:34.659Z,6.93
2017-08-24T06:10:02.191Z,6.67
2017-08-24T06:12:29.744Z,7.13
2017-08-24T06:14:57.301Z,11.20
2017-08-24T06:17:24.847Z,8.53
2017-08-24T06:19:52.527Z,6.73
2017-08-24T06:22:20.120Z,5.43
2017-08-24T06:24:47.689Z,14.63
2017-08-24T06:27:15.266Z,17.20
2017-08-24T06:29:42.781Z,10.80
2017-08-24T06:32:10.371Z,10.73
2017-08-24T06:34:38.055Z,7.20
2017-08-24T06:37:05.771Z,16.37
2017-08-24T06:39:33.312Z,5.90
2017-08-24T06:42:00.866Z,5.77
2017-08-24T06:44:28.424Z,17.40
2017-08-24T06:46:55.985Z,10.37
2017-08-24T06:49:23.556Z,7.03
2017-08-24T06:51:51.087Z,5.87
2017-08-24T06:54:18.592Z,6.00
2017-08-24T06:56:46.154Z,7.27
2017-08-24T06:59:14.525Z,6.83
2017-08-24T07:01:42.070Z,5.10
2017-08-24T07:04:09.596Z,7.20
2017-08-24T07:06:37.160Z,4.43
2017-08-24T07:09:04.700Z,2.80
2017-08-24T07:11:32.323Z,4.43
2017-08-24T07:13:59.808Z,5.13
2017-08-24T07:16:28.482Z,3.70
2017-08-24T07:18:56.051Z,3.30
2017-08-24T07:21:23.599Z,9.60
2017-08-24T07:23:51.120Z,10.97
2017-08-24T07:26:18.772Z,15.37
2017-08-24T07:28:46.322Z,5.80
2017-08-24T07:31:13.821Z,9.33
2017-08-24T07:33:41.410Z,11.67
2017-08-24T07:36:08.921Z,7.90
2017-08-24T07:38:36.489Z,4.53
2017-08-24T07:41:04.209Z,4.70
2017-08-24T07:43:31.710Z,9.83
2017-08-24T07:45:59.309Z,8.20
2017-08-24T07:48:26.974Z,5.10
2017-08-24T07:50:54.482Z,4.03
2017-08-24T07:53:22.101Z,3.87
2017-08-24T07:55:49.712Z,5.13
2017-08-24T07:58:17.266Z,10.00
2017-08-24T08:00:44.797Z,3.23
2017-08-24T08:03:12.537Z,3.53
2017-08-24T08:05:40.027Z,2.90
2017-08-24T08:08:07.585Z,3.97
2017-08-24T08:10:35.193Z,3.60
2017-08-24T08:13:02.755Z,5.63
2017-08-24T08:15:30.331Z,8.50
2017-08-24T08:17:57.954Z,6.63
2017-08-24T08:20:25.481Z,6.70
2017-08-24T08:22:53.172Z,7.17
2017-08-24T08:25:42.407Z,3.77
2017-08-24T08:28:10.029Z,5.27
2017-08-24T08:30:37.587Z,10.00
2017-08-24T08:33:05.157Z,4.87
2017-08-24T08:35:32.743Z,3.57
2017-08-24T08:38:00.431Z,8.50
2017-08-24T08:40:28.327Z,3.03
2017-08-24T08:42:55.884Z,6.27
2017-08-24T08:45:23.477Z,5.90
2017-08-24T08:47:51.081Z,7.80
2017-08-24T08:50:18.629Z,5.30
2017-08-24T08:52:46.533Z,6.40
2017-08-24T08:55:14.315Z,5.87
2017-08-24T08:57:41.847Z,9.63
2017-08-24T09:00:09.380Z,6.70
2017-08-24T09:02:36.998Z,4.23
2017-08-24T09:05:04.552Z,3.03
2017-08-24T09:07:32.123Z,3.20
2017-08-24T09:09:59.688Z,7.47
2017-08-24T09:12:27.348Z,6.90
2017-08-24T09:14:54.898Z,4.63
2017-08-24T09:17:22.594Z,11.67
2017-08-24T09:19:50.169Z,5.03
2017-08-24T09:22:17.739Z,13.57
2017-08-24T09:24:46.115Z,5.43
2017-08-24T09:27:13.651Z,7.07
2017-08-24T09:29:41.178Z,6.97
2017-08-24T09:32:25.345Z,4.40
2017-08-24T09:35:10.932Z,6.77
2017-08-24T09:37:38.500Z,6.57
2017-08-24T09:40:06.043Z,3.40
2017-08-24T09:42:33.526Z,8.17
2017-08-24T09:45:01.107Z,7.53
2017-08-24T09:47:29.390Z,3.43
2017-08-24T09:49:56.969Z,4.33
2017-08-24T09:52:25.588Z,6.20
2017-08-24T09:54:53.140Z,3.77
2017-08-24T09:57:20.650Z,3.00
2017-08-24T09:59:48.344Z,3.83
2017-08-24T10:02:16.090Z,5.70
2017-08-24T10:04:43.586Z,16.53
2017-08-24T10:07:11.158Z,3.23
2017-08-24T10:09:38.729Z,4.50
2017-08-24T10:12:06.317Z,5.00
2017-08-24T10:14:33.928Z,5.73
2017-08-24T10:17:01.476Z,8.83
2017-08-24T10:19:29.056Z,5.17
2017-08-24T10:21:56.657Z,12.50
2017-08-24T10:24:24.228Z,7.13
2017-08-24T10:26:52.733Z,6.17
2017-08-24T10:29:20.387Z,10.47
2017-08-24T10:31:48.075Z,5.53
2017-08-24T10:34:15.643Z,5.37
2017-08-24T10:36:43.385Z,3.40
2017-08-24T10:39:10.951Z,6.17
2017-08-24T10:41:38.484Z,7.33
2017-08-24T10:44:06.090Z,11.23
2017-08-24T10:46:33.687Z,5.70
2017-08-24T10:49:01.208Z,7.87
2017-08-24T10:51:28.933Z,10.80
2017-08-24T10:53:56.505Z,6.50
2017-08-24T10:56:24.040Z,8.40
2017-08-24T10:58:51.701Z,5.37
2017-08-24T11:01:19.326Z,14.10
2017-08-24T11:03:46.913Z,5.40
2017-08-24T11:06:14.505Z,5.40
2017-08-24T11:08:42.052Z,8.67
2017-08-24T11:11:09.607Z,5.70
2017-08-24T11:13:37.288Z,7.10
2017-08-24T11:16:04.862Z,7.57
2017-08-24T11:18:32.428Z,9.53
2017-08-24T11:21:00.030Z,5.67
2017-08-24T11:23:27.580Z,10.47
2017-08-24T11:25:55.191Z,12.10
2017-08-24T11:28:22.761Z,6.83
2017-08-24T11:30:50.318Z,6.03
2017-08-24T11:33:17.890Z,7.47
2017-08-24T11:35:45.523Z,6.00
2017-08-24T11:38:13.121Z,9.10
2017-08-24T11:40:40.630Z,8.50
2017-08-24T11:43:08.206Z,19.43
2017-08-24T11:45:35.885Z,9.73
2017-08-24T11:48:03.591Z,9.33
2017-08-24T11:50:31.424Z,8.93
2017-08-24T11:53:00.498Z,12.03
2017-08-24T11:55:28.912Z,18.37
2017-08-24T11:57:57.567Z,13.57
2017-08-24T12:00:25.136Z,14.77
2017-08-24T12:02:52.717Z,13.93
2017-08-24T12:05:20.422Z,11.40
2017-08-24T12:07:48.015Z,19.93
2017-08-24T12:10:15.554Z,10.00
2017-08-24T12:12:43.360Z,21.33
2017-08-24T12:15:10.931Z,10.57
2017-08-24T12:17:38.506Z,13.37
2017-08-24T12:20:06.224Z,8.73
2017-08-24T12:22:33.797Z,9.10
2017-08-24T12:25:01.371Z,12.77
2017-08-24T12:27:29.025Z,9.60
2017-08-24T12:29:56.613Z,15.23
2017-08-24T12:32:24.210Z,13.00
2017-08-24T12:34:51.971Z,14.93
2017-08-24T12:37:19.544Z,10.10
2017-08-24T12:39:47.096Z,19.23
2017-08-24T12:42:14.696Z,16.10
2017-08-24T12:44:42.246Z,17.43
2017-08-24T12:47:09.844Z,14.63
2017-08-24T12:49:37.537Z,10.10
2017-08-24T12:52:05.134Z,8.40
2017-08-24T12:54:32.941Z,18.27
2017-08-24T12:57:00.602Z,12.40
2017-08-24T12:59:28.085Z,12.63
2017-08-24T13:01:55.665Z,11.50
2017-08-24T13:04:23.303Z,14.17
2017-08-24T13:06:50.888Z,12.50
2017-08-24T13:09:18.450Z,9.60
2017-08-24T13:11:46.090Z,27.87
2017-08-24T13:14:13.730Z,15.53
2017-08-24T13:16:42.186Z,23.03
2017-08-24T13:19:09.781Z,12.43
2017-08-24T13:21:37.374Z,13.80
2017-08-24T13:24:04.914Z,7.97
2017-08-24T13:26:33.583Z,11.07
2017-08-24T13:29:01.162Z,16.17
2017-08-24T13:31:29.226Z,19.37
2017-08-24T13:33:56.864Z,14.57
2017-08-24T13:36:24.429Z,15.47
2017-08-24T13:38:52.353Z,9.43
2017-08-24T13:41:20.199Z,19.30
2017-08-24T13:43:47.797Z,9.03
2017-08-24T13:46:15.404Z,13.60
2017-08-24T13:48:42.992Z,11.20
2017-08-24T13:51:10.585Z,16.73
2017-08-24T13:53:38.178Z,10.30
2017-08-24T13:56:05.735Z,8.60
2017-08-24T13:58:33.378Z,20.40
2017-08-24T14:01:01.086Z,12.13
2017-08-24T14:03:28.707Z,17.97
2017-08-24T14:05:56.333Z,14.30
2017-08-24T14:08:23.950Z,15.40
2017-08-24T14:10:51.607Z,12.00
2017-08-24T14:13:19.224Z,16.87
2017-08-24T14:15:46.765Z,27.53
2017-08-24T14:18:15.095Z,23.97
2017-08-24T14:20:42.672Z,14.17
2017-08-24T14:23:10.217Z,7.00
2017-08-24T14:25:37.980Z,14.87
2017-08-24T14:28:05.515Z,17.37
2017-08-24T14:30:33.405Z,13.97
2017-08-24T14:33:00.997Z,10.80
2017-08-24T14:35:28.508Z,12.03
2017-08-24T14:37:56.188Z,9.13
2017-08-24T14:40:24.353Z,13.60
2017-08-24T14:42:51.979Z,11.00
2017-08-24T14:45:19.656Z,9.47
2017-08-24T14:47:48.116Z,17.60
2017-08-24T14:50:15.807Z,13.87
2017-08-24T14:52:43.479Z,13.10
2017-08-24T14:55:11.195Z,12.67
2017-08-24T14:57:38.821Z,9.27
2017-08-24T15:00:06.470Z,13.27
2017-08-24T15:02:34.093Z,16.50
2017-08-24T15:05:01.676Z,12.77
2017-08-24T15:07:29.288Z,10.07
2017-08-24T15:09:57.388Z,10.17
2017-08-24T15:12:26.181Z,9.53
2017-08-24T15:14:53.800Z,16.00
2017-08-24T15:17:21.481Z,11.43
2017-08-24T15:19:49.096Z,13.97
2017-08-24T15:22:16.691Z,10.17
2017-08-24T15:24:44.345Z,8.97
2017-08-24T15:27:11.934Z,14.43
2017-08-24T15:29:39.574Z,13.10
2017-08-24T15:32:07.216Z,13.43
2017-08-24T15:34:34.754Z,10.53
2017-08-24T15:37:02.309Z,18.40
2017-08-24T15:39:29.961Z,17.63
2017-08-24T15:41:57.551Z,14.43
2017-08-24T15:44:25.156Z,13.87
2017-08-24T15:46:52.944Z,13.93
2017-08-24T15:49:20.505Z,9.27
2017-08-24T15:51:48.125Z,20.83
2017-08-24T15:54:15.854Z,10.50
2017-08-24T15:56:43.419Z,7.57
2017-08-24T15:59:10.978Z,16.63
2017-08-24T16:01:38.605Z,13.10
2017-08-24T16:04:06.252Z,15.15
2017-08-24T16:06:33.849Z,12.37
2017-08-24T16:09:01.650Z,18.35
2017-08-24T16:11:29.243Z,9.57
2017-08-24T16:13:56.860Z,15.10
2017-08-24T16:16:24.502Z,10.95
2017-08-24T16:18:52.156Z,14.07
2017-08-24T16:21:19.778Z,10.80
2017-08-24T16:23:47.367Z,10.88
2017-08-24T16:26:14.943Z,19.23
2017-08-24T16:28:44.657Z,16.80
2017-08-24T16:31:12.248Z,9.80
2017-08-24T16:33:40.975Z,8.93
2017-08-24T16:36:08.626Z,12.40
2017-08-24T16:38:36.264Z,15.68
2017-08-24T16:41:03.860Z,16.12
2017-08-24T16:43:31.445Z,17.50
2017-08-24T16:45:59.104Z,15.50
2017-08-24T16:48:26.686Z,18.08
2017-08-24T16:50:54.266Z,12.25
2017-08-24T16:53:22.042Z,13.70
2017-08-24T16:55:49.617Z,10.60
2017-08-24T16:58:17.269Z,10.05
2017-08-24T17:00:45.110Z,13.32
2017-08-24T17:03:12.705Z,14.75
2017-08-24T17:05:41.497Z,18.40
2017-08-24T17:08:09.055Z,14.00
2017-08-24T17:10:36.657Z,13.52
2017-08-24T17:13:04.237Z,12.95
2017-08-24T17:15:31.824Z,18.17
2017-08-24T17:17:59.413Z,16.30
2017-08-24T17:20:26.971Z,21.08
2017-08-24T17:22:54.616Z,14.82
2017-08-24T17:25:22.182Z,19.95
2017-08-24T17:27:49.796Z,15.13
2017-08-24T17:30:17.421Z,19.65
2017-08-24T17:32:46.098Z,16.75
2017-08-24T17:35:13.670Z,22.48
2017-08-24T17:37:41.376Z,23.85
2017-08-24T17:40:08.984Z,23.00
2017-08-24T17:42:36.575Z,30.77
2017-08-24T17:45:05.134Z,22.98
2017-08-24T17:47:32.772Z,19.75
2017-08-24T17:50:00.373Z,28.95
2017-08-24T17:52:27.962Z,33.47
2017-08-24T17:54:55.593Z,22.02
2017-08-24T17:57:23.145Z,32.40
2017-08-24T17:59:50.800Z,23.02
2017-08-24T18:02:18.394Z,25.88
2017-08-24T18:04:46.301Z,29.30
2017-08-24T18:07:13.877Z,29.08
2017-08-24T18:09:41.413Z,26.37
2017-08-24T18:12:09.080Z,29.12
2017-08-24T18:14:36.734Z,20.65
2017-08-24T18:17:05.111Z,32.60
2017-08-24T18:19:33.578Z,24.48
2017-08-24T18:22:01.426Z,25.52
2017-08-24T18:24:29.802Z,33.08
2017-08-24T18:26:58.454Z,21.55
2017-08-24T18:29:27.011Z,28.20
2017-08-24T18:31:54.638Z,25.12
2017-08-24T18:34:22.253Z,27.70
2017-08-24T18:36:49.898Z,27.98
2017-08-24T18:39:17.600Z,30.95
2017-08-24T18:41:45.223Z,30.15
2017-08-24T18:44:12.934Z,34.22
2017-08-24T18:46:40.558Z,39.33
2017-08-24T18:49:08.258Z,35.45
2017-08-24T18:51:36.712Z,30.42
2017-08-24T18:54:04.325Z,35.80
2017-08-24T18:56:31.908Z,32.72
2017-08-24T18:58:59.746Z,30.65
2017-08-24T19:01:27.339Z,31.45
2017-08-24T19:03:54.990Z,29.98
2017-08-24T19:06:22.728Z,43.28
2017-08-24T19:08:50.345Z,38.08
2017-08-24T19:11:17.922Z,39.33
2017-08-24T19:13:45.651Z,35.10
2017-08-24T19:16:14.176Z,42.15
2017-08-24T19:18:42.658Z,41.10
2017-08-24T19:21:10.423Z,36.45
2017-08-24T19:23:39.317Z,39.45
2017-08-24T19:26:07.354Z,46.10
2017-08-24T19:28:35.290Z,45.05
2017-08-24T19:31:02.918Z,41.88
2017-08-24T19:33:31.276Z,48.08
2017-08-24T19:35:59.686Z,39.38
2017-08-24T19:38:27.834Z,47.47
2017-08-24T19:40:55.407Z,44.55
2017-08-24T19:43:23.068Z,47.08
2017-08-24T19:45:51.505Z,50.58
2017-08-24T19:48:19.246Z,38.08
2017-08-24T19:50:47.077Z,43.05
2017-08-24T19:53:14.701Z,38.38
2017-08-24T19:55:42.972Z,37.45
2017-08-24T19:58:10.765Z,35.30
2017-08-24T20:00:38.705Z,46.00
2017-08-24T20:03:07.076Z,34.05
2017-08-24T20:05:34.756Z,41.63
2017-08-24T20:08:02.430Z,39.13
2017-08-24T20:10:31.342Z,45.60
2017-08-24T20:12:59.032Z,47.70
2017-08-24T20:15:26.595Z,40.47
2017-08-24T20:17:54.217Z,39.05
2017-08-24T20:20:22.022Z,36.55
2017-08-24T20:22:49.660Z,39.53
2017-08-24T20:25:17.315Z,41.78
2017-08-24T20:27:45.088Z,40.05
2017-08-24T20:30:12.716Z,42.28
2017-08-24T20:32:40.297Z,47.50
2017-08-24T20:35:08.001Z,40.50
2017-08-24T20:37:35.778Z,46.03
2017-08-24T20:40:03.401Z,38.05
2017-08-24T20:42:31.082Z,50.22
2017-08-24T20:44:58.709Z,37.03
2017-08-24T20:47:26.368Z,45.50
2017-08-24T20:49:54.983Z,44.67
2017-08-24T20:52:22.654Z,42.75
2017-08-24T20:54:50.314Z,40.55
2017-08-24T20:57:17.977Z,45.05
2017-08-24T20:59:45.644Z,37.33
2017-08-24T21:02:13.330Z,43.83
2017-08-24T21:04:40.928Z,44.13
2017-08-24T21:07:08.617Z,48.15
2017-08-24T21:09:36.218Z,61.15
2017-08-24T21:12:03.982Z,65.43
2017-08-24T21:14:31.583Z,69.95
2017-08-24T21:16:59.215Z,51.95
2017-08-24T21:19:26.844Z,51.83
2017-08-24T21:21:54.470Z,45.22
2017-08-24T21:24:22.097Z,40.63
2017-08-24T21:26:49.742Z,41.97
2017-08-24T21:29:17.341Z,39.35
2017-08-24T21:31:44.978Z,35.90
2017-08-24T21:34:12.691Z,39.90
2017-08-24T21:36:40.292Z,39.65
2017-08-24T21:39:07.946Z,43.53
2017-08-24T21:41:35.858Z,49.25
2017-08-24T21:44:03.448Z,51.00
2017-08-24T21:46:31.071Z,49.58
2017-08-24T21:48:58.657Z,46.67
2017-08-24T21:51:26.174Z,36.80
2017-08-24T21:53:53.754Z,40.35
2017-08-24T21:56:21.399Z,34.85
2017-08-24T21:58:48.959Z,39.00
2017-08-24T22:01:16.579Z,44.10
2017-08-24T22:03:44.182Z,38.72
2017-08-24T22:06:11.829Z,41.60
2017-08-24T22:08:39.358Z,41.58
2017-08-24T22:11:06.987Z,45.15
2017-08-24T22:13:34.588Z,47.22
2017-08-24T22:16:03.302Z,48.70
2017-08-24T22:18:30.920Z,52.60
2017-08-24T22:20:58.440Z,58.78
2017-08-24T22:23:26.014Z,51.63
2017-08-24T22:25:53.597Z,48.55
2017-08-24T22:28:21.163Z,51.10
2017-08-24T22:30:48.708Z,47.15
2017-08-24T22:33:16.327Z,50.88
2017-08-24T22:35:43.884Z,49.65
2017-08-24T22:38:11.447Z,53.65
2017-08-24T22:40:39.153Z,55.67
2017-08-24T22:43:06.731Z,42.62
2017-08-24T22:45:34.292Z,58.70
2017-08-24T22:48:01.866Z,63.55
2017-08-24T22:50:29.416Z,58.03
2017-08-24T22:52:56.941Z,53.20
2017-08-24T22:55:30.262Z,51.55
2017-08-24T22:58:03.537Z,54.03
2017-08-24T23:00:36.983Z,53.95
2017-08-24T23:06:09.897Z,48.50
2017-08-24T23:08:37.451Z,54.22
2017-08-24T23:11:04.992Z,52.55
2017-08-24T23:13:32.725Z,49.65
2017-08-24T23:16:00.273Z,44.05
2017-08-24T23:18:27.816Z,45.53
2017-08-24T23:20:55.558Z,52.13
2017-08-24T23:23:23.132Z,40.88
2017-08-24T23:25:50.671Z,41.70
2017-08-24T23:28:18.421Z,48.03
2017-08-24T23:30:46.014Z,51.53
2017-08-24T23:33:13.561Z,52.83
2017-08-24T23:35:41.158Z,44.38
2017-08-24T23:38:08.720Z,62.25
2017-08-24T23:40:36.281Z,74.57
2017-08-24T23:43:03.819Z,93.80
2017-08-24T23:45:31.383Z,98.80
2017-08-24T23:47:58.947Z,74.05
2017-08-24T23:50:26.519Z,71.72
2017-08-24T23:52:54.055Z,76.72
2017-08-24T23:55:21.576Z,58.65
2017-08-24T23:57:49.340Z,49.17
